Terminal Aerodrome Forecast
Issued by NWS Bismarck, ND

Home | Current Version | Previous Version | Text Only | Print | Product List | Glossary Off
Versions: 1 2 3 4 5 6 7 8 9 10 11 12 13 14 15 16 17 18 19 20

986
FTUS43 KBIS 070717 AAA
TAFISN
TAF AMD
KISN 070717Z 0707/0806 30015KT P6SM SCT020 OVC035
      TEMPO 0707/0710 BKN020 OVC035
     FM071000 30015KT P6SM OVC020
     FM071800 30015G25KT P6SM OVC025
     FM080100 30014KT P6SM BKN030=

USA.gov is the U.S. government's official web portal to all federal, state and local government web resources and services.